sensor_id;sensor_type;location;lat;lon;timestamp;temperature;humidity
37410;DHT22;23275;48.914;12.566;2023-01-19T00:01:54;1.10;99.90
37410;DHT22;23275;48.914;12.566;2023-01-19T00:04:20;1.10;99.90
37410;DHT22;23275;48.914;12.566;2023-01-19T00:06:45;1.20;99.90
37410;DHT22;23275;48.914;12.566;2023-01-19T00:09:11;1.20;99.90
37410;DHT22;23275;48.914;12.566;2023-01-19T00:11:37;1.20;99.90
37410;DHT22;23275;48.914;12.566;2023-01-19T00:14:03;1.20;99.90
37410;DHT22;23275;48.914;12.566;2023-01-19T00:16:28;1.20;99.90
37410;DHT22;23275;48.914;12.566;2023-01-19T00:18:54;1.20;99.90
37410;DHT22;23275;48.914;12.566;2023-01-19T00:21:20;1.20;99.90
37410;DHT22;23275;48.914;12.566;2023-01-19T00:23:46;1.20;99.90
37410;DHT22;23275;48.914;12.566;2023-01-19T00:26:14;1.30;99.90
37410;DHT22;23275;48.914;12.566;2023-01-19T00:28:41;1.30;99.90
37410;DHT22;23275;48.914;12.566;2023-01-19T00:31:06;1.30;99.90
37410;DHT22;23275;48.914;12.566;2023-01-19T00:33:32;1.30;99.90
37410;DHT22;23275;48.914;12.566;2023-01-19T00:35:57;1.30;99.90
37410;DHT22;23275;48.914;12.566;2023-01-19T00:38:23;1.30;99.90
37410;DHT22;23275;48.914;12.566;2023-01-19T00:40:48;1.30;99.90
37410;DHT22;23275;48.914;12.566;2023-01-19T00:43:14;1.40;99.90
37410;DHT22;23275;48.914;12.566;2023-01-19T00:45:40;1.40;99.90
37410;DHT22;23275;48.914;12.566;2023-01-19T00:48:06;1.30;99.90
37410;DHT22;23275;48.914;12.566;2023-01-19T00:50:32;1.30;99.90
37410;DHT22;23275;48.914;12.566;2023-01-19T00:52:59;1.30;99.90
37410;DHT22;23275;48.914;12.566;2023-01-19T00:55:25;1.20;99.90
37410;DHT22;23275;48.914;12.566;2023-01-19T00:57:52;1.20;99.90
37410;DHT22;23275;48.914;12.566;2023-01-19T01:00:18;1.10;99.90
37410;DHT22;23275;48.914;12.566;2023-01-19T01:02:44;1.10;99.90
37410;DHT22;23275;48.914;12.566;2023-01-19T01:05:11;1.10;99.90
37410;DHT22;23275;48.914;12.566;2023-01-19T01:07:36;1.20;99.90
37410;DHT22;23275;48.914;12.566;2023-01-19T01:10:09;1.20;99.90
37410;DHT22;23275;48.914;12.566;2023-01-19T01:12:35;1.20;99.90
37410;DHT22;23275;48.914;12.566;2023-01-19T01:15:02;1.20;99.90
37410;DHT22;23275;48.914;12.566;2023-01-19T01:17:27;1.20;99.90
37410;DHT22;23275;48.914;12.566;2023-01-19T01:19:53;1.20;99.90
37410;DHT22;23275;48.914;12.566;2023-01-19T01:22:19;1.30;99.90
37410;DHT22;23275;48.914;12.566;2023-01-19T01:24:44;1.30;99.90
37410;DHT22;23275;48.914;12.566;2023-01-19T01:27:10;1.30;99.90
37410;DHT22;23275;48.914;12.566;2023-01-19T01:29:36;1.30;99.90
37410;DHT22;23275;48.914;12.566;2023-01-19T01:32:01;1.30;99.90
37410;DHT22;23275;48.914;12.566;2023-01-19T01:34:27;1.30;99.90
37410;DHT22;23275;48.914;12.566;2023-01-19T01:36:53;1.20;99.90
37410;DHT22;23275;48.914;12.566;2023-01-19T01:39:19;1.20;99.90
37410;DHT22;23275;48.914;12.566;2023-01-19T01:41:44;1.20;99.90
37410;DHT22;23275;48.914;12.566;2023-01-19T01:44:43;1.20;99.90
37410;DHT22;23275;48.914;12.566;2023-01-19T01:47:17;1.10;99.90
37410;DHT22;23275;48.914;12.566;2023-01-19T01:49:46;1.10;99.90
37410;DHT22;23275;48.914;12.566;2023-01-19T01:52:13;1.10;99.90
37410;DHT22;23275;48.914;12.566;2023-01-19T01:54:40;1.00;99.90
37410;DHT22;23275;48.914;12.566;2023-01-19T01:57:07;1.00;99.90
37410;DHT22;23275;48.914;12.566;2023-01-19T01:59:41;1.10;99.90
37410;DHT22;23275;48.914;12.566;2023-01-19T02:02:20;1.10;99.90
37410;DHT22;23275;48.914;12.566;2023-01-19T02:05:09;1.10;99.90
37410;DHT22;23275;48.914;12.566;2023-01-19T02:07:42;1.10;99.90
37410;DHT22;23275;48.914;12.566;2023-01-19T02:10:29;1.10;99.90
37410;DHT22;23275;48.914;12.566;2023-01-19T02:13:14;1.10;99.90
37410;DHT22;23275;48.914;12.566;2023-01-19T02:15:53;1.10;99.90
37410;DHT22;23275;48.914;12.566;2023-01-19T02:18:21;1.10;99.90
37410;DHT22;23275;48.914;12.566;2023-01-19T02:21:15;1.10;99.90
37410;DHT22;23275;48.914;12.566;2023-01-19T02:23:51;1.10;99.90
37410;DHT22;23275;48.914;12.566;2023-01-19T02:26:34;1.10;99.90
37410;DHT22;23275;48.914;12.566;2023-01-19T02:29:12;1.10;99.90
37410;DHT22;23275;48.914;12.566;2023-01-19T02:31:39;1.00;99.90
37410;DHT22;23275;48.914;12.566;2023-01-19T02:34:08;1.00;99.90
37410;DHT22;23275;48.914;12.566;2023-01-19T02:36:49;1.00;99.90
37410;DHT22;23275;48.914;12.566;2023-01-19T02:39:18;1.00;99.90
37410;DHT22;23275;48.914;12.566;2023-01-19T02:41:54;0.90;99.90
37410;DHT22;23275;48.914;12.566;2023-01-19T02:44:23;0.90;99.90
37410;DHT22;23275;48.914;12.566;2023-01-19T02:46:53;0.90;99.90
37410;DHT22;23275;48.914;12.566;2023-01-19T02:49:18;0.90;99.90
37410;DHT22;23275;48.914;12.566;2023-01-19T02:51:44;0.90;99.90
37410;DHT22;23275;48.914;12.566;2023-01-19T02:54:57;0.90;99.90
37410;DHT22;23275;48.914;12.566;2023-01-19T03:06:05;0.80;99.90
37410;DHT22;23275;48.914;12.566;2023-01-19T03:08:48;0.80;99.90
37410;DHT22;23275;48.914;12.566;2023-01-19T03:11:17;0.80;99.90
37410;DHT22;23275;48.914;12.566;2023-01-19T03:14:06;0.80;99.90
37410;DHT22;23275;48.914;12.566;2023-01-19T03:16:50;0.70;99.90
37410;DHT22;23275;48.914;12.566;2023-01-19T03:19:33;0.70;99.90
37410;DHT22;23275;48.914;12.566;2023-01-19T03:22:04;0.70;99.90
37410;DHT22;23275;48.914;12.566;2023-01-19T03:24:35;0.70;99.90
37410;DHT22;23275;48.914;12.566;2023-01-19T03:27:08;0.70;99.90
37410;DHT22;23275;48.914;12.566;2023-01-19T03:29:37;0.70;99.90
37410;DHT22;23275;48.914;12.566;2023-01-19T03:32:10;0.70;99.90
37410;DHT22;23275;48.914;12.566;2023-01-19T03:34:37;0.70;99.90
37410;DHT22;23275;48.914;12.566;2023-01-19T03:37:04;0.70;99.90
37410;DHT22;23275;48.914;12.566;2023-01-19T03:39:31;0.70;99.90
37410;DHT22;23275;48.914;12.566;2023-01-19T03:42:01;0.60;99.90
37410;DHT22;23275;48.914;12.566;2023-01-19T03:44:28;0.60;99.90
37410;DHT22;23275;48.914;12.566;2023-01-19T03:46:57;0.70;99.90
37410;DHT22;23275;48.914;12.566;2023-01-19T03:49:23;0.60;99.90
37410;DHT22;23275;48.914;12.566;2023-01-19T03:51:49;0.60;99.90
37410;DHT22;23275;48.914;12.566;2023-01-19T03:54:14;0.60;99.90
37410;DHT22;23275;48.914;12.566;2023-01-19T03:56:40;0.60;99.90
37410;DHT22;23275;48.914;12.566;2023-01-19T03:59:08;0.60;99.90
37410;DHT22;23275;48.914;12.566;2023-01-19T04:01:33;0.60;99.90
37410;DHT22;23275;48.914;12.566;2023-01-19T04:03:59;0.60;99.90
37410;DHT22;23275;48.914;12.566;2023-01-19T04:06:25;0.50;99.90
37410;DHT22;23275;48.914;12.566;2023-01-19T04:08:51;0.50;99.90
37410;DHT22;23275;48.914;12.566;2023-01-19T04:11:16;0.50;99.90
37410;DHT22;23275;48.914;12.566;2023-01-19T04:13:42;0.50;99.90
37410;DHT22;23275;48.914;12.566;2023-01-19T04:16:09;0.40;99.90
37410;DHT22;23275;48.914;12.566;2023-01-19T04:18:35;0.40;99.90
37410;DHT22;23275;48.914;12.566;2023-01-19T04:21:06;0.40;99.90
37410;DHT22;23275;48.914;12.566;2023-01-19T04:23:32;0.30;99.90
37410;DHT22;23275;48.914;12.566;2023-01-19T04:25:59;0.30;99.90
37410;DHT22;23275;48.914;12.566;2023-01-19T04:28:25;0.30;99.90
37410;DHT22;23275;48.914;12.566;2023-01-19T04:30:51;0.20;99.90
37410;DHT22;23275;48.914;12.566;2023-01-19T04:33:18;0.20;99.90
37410;DHT22;23275;48.914;12.566;2023-01-19T04:35:44;0.10;99.90
37410;DHT22;23275;48.914;12.566;2023-01-19T04:38:10;0.10;99.90
37410;DHT22;23275;48.914;12.566;2023-01-19T04:40:35;0.00;99.90
37410;DHT22;23275;48.914;12.566;2023-01-19T04:43:01;0.00;99.90
37410;DHT22;23275;48.914;12.566;2023-01-19T04:45:26;-0.10;99.90
37410;DHT22;23275;48.914;12.566;2023-01-19T04:47:52;-0.10;99.90
37410;DHT22;23275;48.914;12.566;2023-01-19T04:50:17;-0.10;99.90
37410;DHT22;23275;48.914;12.566;2023-01-19T04:52:44;-0.20;99.90
37410;DHT22;23275;48.914;12.566;2023-01-19T04:55:11;-0.20;99.90
37410;DHT22;23275;48.914;12.566;2023-01-19T04:57:36;-0.20;99.90
37410;DHT22;23275;48.914;12.566;2023-01-19T05:00:04;-0.20;99.90
37410;DHT22;23275;48.914;12.566;2023-01-19T05:02:33;-0.30;99.90
37410;DHT22;23275;48.914;12.566;2023-01-19T05:04:59;-0.30;99.90
37410;DHT22;23275;48.914;12.566;2023-01-19T05:07:25;-0.40;99.90
37410;DHT22;23275;48.914;12.566;2023-01-19T05:09:51;-0.40;99.90
37410;DHT22;23275;48.914;12.566;2023-01-19T05:12:17;-0.40;99.90
37410;DHT22;23275;48.914;12.566;2023-01-19T05:14:42;-0.40;99.90
37410;DHT22;23275;48.914;12.566;2023-01-19T05:17:08;-0.40;99.90
37410;DHT22;23275;48.914;12.566;2023-01-19T05:19:34;-0.40;99.90
37410;DHT22;23275;48.914;12.566;2023-01-19T05:22:04;-0.40;99.90
37410;DHT22;23275;48.914;12.566;2023-01-19T05:24:30;-0.40;99.90
37410;DHT22;23275;48.914;12.566;2023-01-19T05:26:56;-0.50;99.90
37410;DHT22;23275;48.914;12.566;2023-01-19T05:29:22;-0.50;99.90
37410;DHT22;23275;48.914;12.566;2023-01-19T05:31:47;-0.50;99.90
37410;DHT22;23275;48.914;12.566;2023-01-19T05:34:13;-0.60;99.90
37410;DHT22;23275;48.914;12.566;2023-01-19T05:36:39;-0.60;99.90
37410;DHT22;23275;48.914;12.566;2023-01-19T05:39:05;-0.60;99.90
37410;DHT22;23275;48.914;12.566;2023-01-19T05:41:30;-0.60;99.90
37410;DHT22;23275;48.914;12.566;2023-01-19T05:43:56;-0.60;99.90
37410;DHT22;23275;48.914;12.566;2023-01-19T05:46:22;-0.60;99.90
37410;DHT22;23275;48.914;12.566;2023-01-19T05:48:48;-0.70;99.90
37410;DHT22;23275;48.914;12.566;2023-01-19T05:51:14;-0.80;99.90
37410;DHT22;23275;48.914;12.566;2023-01-19T05:53:40;-0.90;99.90
37410;DHT22;23275;48.914;12.566;2023-01-19T05:56:07;-0.90;99.90
37410;DHT22;23275;48.914;12.566;2023-01-19T05:58:35;-0.90;99.90
37410;DHT22;23275;48.914;12.566;2023-01-19T06:01:02;-0.90;99.90
37410;DHT22;23275;48.914;12.566;2023-01-19T06:03:33;-0.90;99.90
37410;DHT22;23275;48.914;12.566;2023-01-19T06:05:59;-0.90;99.90
37410;DHT22;23275;48.914;12.566;2023-01-19T06:08:25;-0.90;99.90
37410;DHT22;23275;48.914;12.566;2023-01-19T06:10:51;-0.90;99.90
37410;DHT22;23275;48.914;12.566;2023-01-19T06:13:17;-0.90;99.90
37410;DHT22;23275;48.914;12.566;2023-01-19T06:15:43;-0.90;99.90
37410;DHT22;23275;48.914;12.566;2023-01-19T06:18:13;-0.90;99.90
37410;DHT22;23275;48.914;12.566;2023-01-19T06:20:41;-0.90;99.90
37410;DHT22;23275;48.914;12.566;2023-01-19T06:23:06;-0.90;99.90
37410;DHT22;23275;48.914;12.566;2023-01-19T06:25:32;-1.00;99.90
37410;DHT22;23275;48.914;12.566;2023-01-19T06:27:57;-1.00;99.90
37410;DHT22;23275;48.914;12.566;2023-01-19T06:30:23;-1.00;99.90
37410;DHT22;23275;48.914;12.566;2023-01-19T06:32:49;-1.00;99.90
37410;DHT22;23275;48.914;12.566;2023-01-19T06:35:14;-1.00;99.90
37410;DHT22;23275;48.914;12.566;2023-01-19T06:37:40;-0.90;99.90
37410;DHT22;23275;48.914;12.566;2023-01-19T06:40:06;-0.90;99.90
37410;DHT22;23275;48.914;12.566;2023-01-19T06:42:32;-0.90;99.90
37410;DHT22;23275;48.914;12.566;2023-01-19T06:44:58;-0.90;99.90
37410;DHT22;23275;48.914;12.566;2023-01-19T06:47:24;-0.90;99.90
37410;DHT22;23275;48.914;12.566;2023-01-19T06:49:49;-0.90;99.90
37410;DHT22;23275;48.914;12.566;2023-01-19T06:52:15;-0.90;99.90
37410;DHT22;23275;48.914;12.566;2023-01-19T06:54:42;-0.90;99.90
37410;DHT22;23275;48.914;12.566;2023-01-19T06:57:09;-0.90;99.90
37410;DHT22;23275;48.914;12.566;2023-01-19T06:59:36;-0.90;99.90
37410;DHT22;23275;48.914;12.566;2023-01-19T07:02:02;-0.90;99.90
37410;DHT22;23275;48.914;12.566;2023-01-19T07:04:27;-1.00;99.90
37410;DHT22;23275;48.914;12.566;2023-01-19T07:06:53;-0.90;99.90
37410;DHT22;23275;48.914;12.566;2023-01-19T07:09:19;-1.00;99.90
37410;DHT22;23275;48.914;12.566;2023-01-19T07:11:45;-0.90;99.90
37410;DHT22;23275;48.914;12.566;2023-01-19T07:14:11;-0.90;99.90
37410;DHT22;23275;48.914;12.566;2023-01-19T07:16:37;-1.00;99.90
37410;DHT22;23275;48.914;12.566;2023-01-19T07:19:03;-1.00;99.90
37410;DHT22;23275;48.914;12.566;2023-01-19T07:21:29;-0.90;99.90
37410;DHT22;23275;48.914;12.566;2023-01-19T07:23:54;-0.90;99.90
37410;DHT22;23275;48.914;12.566;2023-01-19T07:26:21;-0.90;99.90
37410;DHT22;23275;48.914;12.566;2023-01-19T07:28:50;-0.90;99.90
37410;DHT22;23275;48.914;12.566;2023-01-19T07:31:16;-0.80;99.90
37410;DHT22;23275;48.914;12.566;2023-01-19T07:33:42;-0.80;99.90
37410;DHT22;23275;48.914;12.566;2023-01-19T07:36:08;-0.80;99.90
37410;DHT22;23275;48.914;12.566;2023-01-19T07:38:34;-0.80;99.90
37410;DHT22;23275;48.914;12.566;2023-01-19T07:41:00;-0.70;99.90
37410;DHT22;23275;48.914;12.566;2023-01-19T07:43:26;-0.70;99.90
37410;DHT22;23275;48.914;12.566;2023-01-19T07:45:55;-0.60;99.90
37410;DHT22;23275;48.914;12.566;2023-01-19T07:48:21;-0.60;99.90
37410;DHT22;23275;48.914;12.566;2023-01-19T07:50:46;-0.50;99.90
37410;DHT22;23275;48.914;12.566;2023-01-19T07:53:12;-0.50;99.90
37410;DHT22;23275;48.914;12.566;2023-01-19T07:55:37;-0.40;99.90
37410;DHT22;23275;48.914;12.566;2023-01-19T07:58:03;-0.30;99.90
37410;DHT22;23275;48.914;12.566;2023-01-19T08:00:32;-0.20;99.90
37410;DHT22;23275;48.914;12.566;2023-01-19T08:02:59;-0.10;99.90
37410;DHT22;23275;48.914;12.566;2023-01-19T08:05:25;0.00;99.90
37410;DHT22;23275;48.914;12.566;2023-01-19T08:07:52;0.00;99.90
37410;DHT22;23275;48.914;12.566;2023-01-19T08:10:20;0.10;99.90
37410;DHT22;23275;48.914;12.566;2023-01-19T08:12:49;0.20;99.90
37410;DHT22;23275;48.914;12.566;2023-01-19T08:15:14;0.30;99.90
37410;DHT22;23275;48.914;12.566;2023-01-19T08:17:40;0.40;99.90
37410;DHT22;23275;48.914;12.566;2023-01-19T08:20:06;0.50;99.90
37410;DHT22;23275;48.914;12.566;2023-01-19T08:22:33;0.70;99.90
37410;DHT22;23275;48.914;12.566;2023-01-19T08:24:59;0.90;99.90
37410;DHT22;23275;48.914;12.566;2023-01-19T08:27:24;1.30;99.90
37410;DHT22;23275;48.914;12.566;2023-01-19T08:29:50;1.40;99.90
37410;DHT22;23275;48.914;12.566;2023-01-19T08:32:16;1.40;99.90
37410;DHT22;23275;48.914;12.566;2023-01-19T08:34:41;1.30;99.90
37410;DHT22;23275;48.914;12.566;2023-01-19T08:37:07;1.20;99.90
37410;DHT22;23275;48.914;12.566;2023-01-19T08:39:32;1.10;99.90
37410;DHT22;23275;48.914;12.566;2023-01-19T08:41:58;1.00;99.90
37410;DHT22;23275;48.914;12.566;2023-01-19T08:44:26;0.90;99.90
37410;DHT22;23275;48.914;12.566;2023-01-19T08:46:51;0.80;99.90
37410;DHT22;23275;48.914;12.566;2023-01-19T08:49:17;0.70;99.90
37410;DHT22;23275;48.914;12.566;2023-01-19T08:51:42;0.70;99.90
37410;DHT22;23275;48.914;12.566;2023-01-19T08:54:12;0.70;99.90
37410;DHT22;23275;48.914;12.566;2023-01-19T08:56:37;0.60;99.90
37410;DHT22;23275;48.914;12.566;2023-01-19T08:59:03;0.60;99.90
37410;DHT22;23275;48.914;12.566;2023-01-19T09:01:28;0.70;99.90
37410;DHT22;23275;48.914;12.566;2023-01-19T09:03:54;0.90;99.90
37410;DHT22;23275;48.914;12.566;2023-01-19T09:06:20;1.30;99.90
37410;DHT22;23275;48.914;12.566;2023-01-19T09:08:46;1.50;99.90
37410;DHT22;23275;48.914;12.566;2023-01-19T09:11:14;1.60;99.90
37410;DHT22;23275;48.914;12.566;2023-01-19T09:13:40;1.70;99.90
37410;DHT22;23275;48.914;12.566;2023-01-19T09:16:07;2.10;99.90
37410;DHT22;23275;48.914;12.566;2023-01-19T09:18:34;2.50;99.90
37410;DHT22;23275;48.914;12.566;2023-01-19T09:21:00;2.70;99.90
37410;DHT22;23275;48.914;12.566;2023-01-19T09:23:26;2.80;99.90
37410;DHT22;23275;48.914;12.566;2023-01-19T09:26:00;2.80;99.90
37410;DHT22;23275;48.914;12.566;2023-01-19T09:28:26;2.90;99.90
37410;DHT22;23275;48.914;12.566;2023-01-19T09:30:53;2.80;99.90
37410;DHT22;23275;48.914;12.566;2023-01-19T09:33:19;2.60;99.90
37410;DHT22;23275;48.914;12.566;2023-01-19T09:35:46;2.50;99.90
37410;DHT22;23275;48.914;12.566;2023-01-19T09:38:12;2.20;99.90
37410;DHT22;23275;48.914;12.566;2023-01-19T09:40:46;2.00;99.90
37410;DHT22;23275;48.914;12.566;2023-01-19T09:46:00;1.90;99.90
37410;DHT22;23275;48.914;12.566;2023-01-19T09:48:42;1.90;99.90
37410;DHT22;23275;48.914;12.566;2023-01-19T09:51:14;1.90;99.90
37410;DHT22;23275;48.914;12.566;2023-01-19T09:54:02;2.00;99.90
37410;DHT22;23275;48.914;12.566;2023-01-19T09:56:30;2.00;99.90
37410;DHT22;23275;48.914;12.566;2023-01-19T09:58:57;1.90;99.90
37410;DHT22;23275;48.914;12.566;2023-01-19T10:10:08;4.80;99.90
37410;DHT22;23275;48.914;12.566;2023-01-19T10:18:47;5.70;99.90
37410;DHT22;23275;48.914;12.566;2023-01-19T10:21:28;5.10;99.90
37410;DHT22;23275;48.914;12.566;2023-01-19T10:24:22;4.40;99.90
37410;DHT22;23275;48.914;12.566;2023-01-19T10:26:52;4.10;99.90
37410;DHT22;23275;48.914;12.566;2023-01-19T10:29:33;3.70;99.90
37410;DHT22;23275;48.914;12.566;2023-01-19T10:32:23;3.40;99.90
37410;DHT22;23275;48.914;12.566;2023-01-19T10:34:50;3.10;99.90
37410;DHT22;23275;48.914;12.566;2023-01-19T10:39:53;2.70;99.90
37410;DHT22;23275;48.914;12.566;2023-01-19T10:42:19;2.70;99.90
37410;DHT22;23275;48.914;12.566;2023-01-19T10:44:45;2.70;99.90
37410;DHT22;23275;48.914;12.566;2023-01-19T10:47:22;2.70;99.90
37410;DHT22;23275;48.914;12.566;2023-01-19T10:49:48;2.70;99.90
37410;DHT22;23275;48.914;12.566;2023-01-19T10:52:35;2.80;99.90
37410;DHT22;23275;48.914;12.566;2023-01-19T10:55:03;2.80;99.90
37410;DHT22;23275;48.914;12.566;2023-01-19T10:57:35;2.90;99.90
37410;DHT22;23275;48.914;12.566;2023-01-19T11:00:04;3.30;99.90
37410;DHT22;23275;48.914;12.566;2023-01-19T11:02:31;3.80;99.90
37410;DHT22;23275;48.914;12.566;2023-01-19T11:05:20;4.20;99.90
37410;DHT22;23275;48.914;12.566;2023-01-19T11:07:47;4.30;99.90
37410;DHT22;23275;48.914;12.566;2023-01-19T11:12:54;4.60;99.90
37410;DHT22;23275;48.914;12.566;2023-01-19T11:15:43;4.40;99.90
37410;DHT22;23275;48.914;12.566;2023-01-19T11:18:17;4.30;99.90
37410;DHT22;23275;48.914;12.566;2023-01-19T11:20:49;3.80;99.90
37410;DHT22;23275;48.914;12.566;2023-01-19T11:25:50;3.40;99.90
37410;DHT22;23275;48.914;12.566;2023-01-19T11:28:34;3.30;99.90
37410;DHT22;23275;48.914;12.566;2023-01-19T11:33:42;3.30;99.90
37410;DHT22;23275;48.914;12.566;2023-01-19T11:36:22;3.20;99.90
37410;DHT22;23275;48.914;12.566;2023-01-19T11:38:49;3.10;99.90
37410;DHT22;23275;48.914;12.566;2023-01-19T11:41:19;3.10;99.90
37410;DHT22;23275;48.914;12.566;2023-01-19T11:43:47;2.90;99.90
37410;DHT22;23275;48.914;12.566;2023-01-19T11:46:14;2.80;99.90
37410;DHT22;23275;48.914;12.566;2023-01-19T11:48:44;2.90;99.90
37410;DHT22;23275;48.914;12.566;2023-01-19T11:51:14;3.10;99.90
37410;DHT22;23275;48.914;12.566;2023-01-19T11:53:42;3.20;99.90
37410;DHT22;23275;48.914;12.566;2023-01-19T11:56:13;3.20;99.90
37410;DHT22;23275;48.914;12.566;2023-01-19T11:58:41;3.10;99.90
37410;DHT22;23275;48.914;12.566;2023-01-19T12:06:24;3.10;99.90
37410;DHT22;23275;48.914;12.566;2023-01-19T12:08:54;3.30;99.90
37410;DHT22;23275;48.914;12.566;2023-01-19T12:11:26;3.30;99.90
37410;DHT22;23275;48.914;12.566;2023-01-19T12:13:56;3.40;99.90
37410;DHT22;23275;48.914;12.566;2023-01-19T12:16:25;3.60;99.90
37410;DHT22;23275;48.914;12.566;2023-01-19T12:19:26;3.80;99.90
37410;DHT22;23275;48.914;12.566;2023-01-19T12:21:44;4.10;99.90
37410;DHT22;23275;48.914;12.566;2023-01-19T12:24:19;4.00;99.90
37410;DHT22;23275;48.914;12.566;2023-01-19T12:26:55;3.90;99.90
37410;DHT22;23275;48.914;12.566;2023-01-19T12:29:23;4.00;99.90
37410;DHT22;23275;48.914;12.566;2023-01-19T12:34:46;3.90;99.90
37410;DHT22;23275;48.914;12.566;2023-01-19T12:37:36;3.90;99.90
37410;DHT22;23275;48.914;12.566;2023-01-19T12:40:27;3.90;99.90
37410;DHT22;23275;48.914;12.566;2023-01-19T12:43:00;3.90;99.90
37410;DHT22;23275;48.914;12.566;2023-01-19T12:45:35;3.90;99.90
37410;DHT22;23275;48.914;12.566;2023-01-19T12:48:01;3.70;99.90
37410;DHT22;23275;48.914;12.566;2023-01-19T12:50:35;3.50;99.90
37410;DHT22;23275;48.914;12.566;2023-01-19T12:53:02;3.40;99.90
37410;DHT22;23275;48.914;12.566;2023-01-19T12:55:35;3.30;99.90
37410;DHT22;23275;48.914;12.566;2023-01-19T12:58:13;3.10;99.90
37410;DHT22;23275;48.914;12.566;2023-01-19T13:00:43;2.90;99.90
37410;DHT22;23275;48.914;12.566;2023-01-19T13:05:49;2.70;99.90
37410;DHT22;23275;48.914;12.566;2023-01-19T13:08:17;2.70;99.90
37410;DHT22;23275;48.914;12.566;2023-01-19T13:13:37;2.70;99.90
37410;DHT22;23275;48.914;12.566;2023-01-19T13:18:49;2.70;99.90
37410;DHT22;23275;48.914;12.566;2023-01-19T13:21:30;2.70;99.90
37410;DHT22;23275;48.914;12.566;2023-01-19T13:24:03;2.60;99.90
37410;DHT22;23275;48.914;12.566;2023-01-19T13:26:36;2.60;99.90
37410;DHT22;23275;48.914;12.566;2023-01-19T13:31:59;2.50;99.90
37410;DHT22;23275;48.914;12.566;2023-01-19T13:34:39;2.50;99.90
37410;DHT22;23275;48.914;12.566;2023-01-19T13:37:19;2.50;99.90
37410;DHT22;23275;48.914;12.566;2023-01-19T13:39:46;2.50;99.90
37410;DHT22;23275;48.914;12.566;2023-01-19T13:42:28;2.40;99.90
37410;DHT22;23275;48.914;12.566;2023-01-19T13:44:58;2.40;99.90
37410;DHT22;23275;48.914;12.566;2023-01-19T13:47:42;2.40;99.90
37410;DHT22;23275;48.914;12.566;2023-01-19T13:52:52;2.30;99.90
37410;DHT22;23275;48.914;12.566;2023-01-19T13:55:21;2.30;99.90
37410;DHT22;23275;48.914;12.566;2023-01-19T13:57:48;2.30;99.90
37410;DHT22;23275;48.914;12.566;2023-01-19T14:00:17;2.30;99.90
37410;DHT22;23275;48.914;12.566;2023-01-19T14:03:14;2.40;99.90
37410;DHT22;23275;48.914;12.566;2023-01-19T14:05:42;2.40;99.90
37410;DHT22;23275;48.914;12.566;2023-01-19T14:13:22;2.40;99.90
37410;DHT22;23275;48.914;12.566;2023-01-19T14:15:51;2.40;99.90
37410;DHT22;23275;48.914;12.566;2023-01-19T14:23:48;2.40;99.90
37410;DHT22;23275;48.914;12.566;2023-01-19T14:29:27;2.30;99.90
37410;DHT22;23275;48.914;12.566;2023-01-19T14:34:35;2.30;99.90
37410;DHT22;23275;48.914;12.566;2023-01-19T14:37:10;2.30;99.90
37410;DHT22;23275;48.914;12.566;2023-01-19T14:39:37;2.40;99.90
37410;DHT22;23275;48.914;12.566;2023-01-19T14:42:10;2.40;99.90
37410;DHT22;23275;48.914;12.566;2023-01-19T14:44:39;2.40;99.90
37410;DHT22;23275;48.914;12.566;2023-01-19T14:47:06;2.30;99.90
37410;DHT22;23275;48.914;12.566;2023-01-19T14:49:34;2.30;99.90
37410;DHT22;23275;48.914;12.566;2023-01-19T14:52:24;2.40;99.90
37410;DHT22;23275;48.914;12.566;2023-01-19T14:54:51;2.30;99.90
37410;DHT22;23275;48.914;12.566;2023-01-19T14:57:18;2.20;99.90
37410;DHT22;23275;48.914;12.566;2023-01-19T14:59:43;2.20;99.90
37410;DHT22;23275;48.914;12.566;2023-01-19T15:02:13;2.10;99.90
37410;DHT22;23275;48.914;12.566;2023-01-19T15:04:38;2.20;99.90
37410;DHT22;23275;48.914;12.566;2023-01-19T15:07:04;2.10;99.90
37410;DHT22;23275;48.914;12.566;2023-01-19T15:09:30;2.00;99.90
37410;DHT22;23275;48.914;12.566;2023-01-19T15:11:56;1.90;99.90
37410;DHT22;23275;48.914;12.566;2023-01-19T15:14:22;2.00;99.90
37410;DHT22;23275;48.914;12.566;2023-01-19T15:16:48;1.90;99.90
37410;DHT22;23275;48.914;12.566;2023-01-19T15:19:15;1.90;99.90
37410;DHT22;23275;48.914;12.566;2023-01-19T15:21:41;1.80;99.90
37410;DHT22;23275;48.914;12.566;2023-01-19T15:24:11;1.80;99.90
37410;DHT22;23275;48.914;12.566;2023-01-19T15:26:39;1.80;99.90
37410;DHT22;23275;48.914;12.566;2023-01-19T15:29:13;1.80;99.90
37410;DHT22;23275;48.914;12.566;2023-01-19T15:31:40;1.80;99.90
37410;DHT22;23275;48.914;12.566;2023-01-19T15:34:10;1.70;99.90
37410;DHT22;23275;48.914;12.566;2023-01-19T15:36:36;1.70;99.90
37410;DHT22;23275;48.914;12.566;2023-01-19T15:39:01;1.60;99.90
37410;DHT22;23275;48.914;12.566;2023-01-19T15:41:28;1.60;99.90
37410;DHT22;23275;48.914;12.566;2023-01-19T15:43:54;1.60;99.90
37410;DHT22;23275;48.914;12.566;2023-01-19T15:46:21;1.60;99.90
37410;DHT22;23275;48.914;12.566;2023-01-19T15:48:48;1.50;99.90
37410;DHT22;23275;48.914;12.566;2023-01-19T15:51:16;1.50;99.90
37410;DHT22;23275;48.914;12.566;2023-01-19T15:53:43;1.50;99.90
37410;DHT22;23275;48.914;12.566;2023-01-19T15:56:21;1.50;99.90
37410;DHT22;23275;48.914;12.566;2023-01-19T15:58:48;1.50;99.90
37410;DHT22;23275;48.914;12.566;2023-01-19T16:01:19;1.50;99.90
37410;DHT22;23275;48.914;12.566;2023-01-19T16:03:45;1.40;99.90
37410;DHT22;23275;48.914;12.566;2023-01-19T16:06:11;1.40;99.90
37410;DHT22;23275;48.914;12.566;2023-01-19T16:08:37;1.40;99.90
37410;DHT22;23275;48.914;12.566;2023-01-19T16:11:12;1.40;99.90
37410;DHT22;23275;48.914;12.566;2023-01-19T16:13:39;1.40;99.90
37410;DHT22;23275;48.914;12.566;2023-01-19T16:16:13;1.40;99.90
37410;DHT22;23275;48.914;12.566;2023-01-19T16:18:38;1.40;99.90
37410;DHT22;23275;48.914;12.566;2023-01-19T16:21:04;1.40;99.90
37410;DHT22;23275;48.914;12.566;2023-01-19T16:23:30;1.40;99.90
37410;DHT22;23275;48.914;12.566;2023-01-19T16:26:04;1.40;99.90
37410;DHT22;23275;48.914;12.566;2023-01-19T16:28:36;1.40;99.90
37410;DHT22;23275;48.914;12.566;2023-01-19T16:31:02;1.40;99.90
37410;DHT22;23275;48.914;12.566;2023-01-19T16:33:28;1.40;99.90
37410;DHT22;23275;48.914;12.566;2023-01-19T16:35:54;1.40;99.90
37410;DHT22;23275;48.914;12.566;2023-01-19T16:38:21;1.40;99.90
37410;DHT22;23275;48.914;12.566;2023-01-19T16:40:47;1.40;99.90
37410;DHT22;23275;48.914;12.566;2023-01-19T16:43:13;1.40;99.90
37410;DHT22;23275;48.914;12.566;2023-01-19T16:45:56;1.40;99.90
37410;DHT22;23275;48.914;12.566;2023-01-19T16:48:22;1.40;99.90
37410;DHT22;23275;48.914;12.566;2023-01-19T16:50:57;1.40;99.90
37410;DHT22;23275;48.914;12.566;2023-01-19T16:53:23;1.40;99.90
37410;DHT22;23275;48.914;12.566;2023-01-19T16:55:49;1.30;99.90